Terminal Aerodrome Forecast
Issued by NWS

Home | Current Version | Previous Version | Graphics & Text | Print | Product List | Glossary On
Versions: 1 2 3 4 5 6 7 8 9 10 11 12 13 14 15 16
317
FTUS43 KGRB 012217 AAA
TAFMTW
TAF AMD
KMTW 012217Z 0122/0218 03012G20KT P6SM BKN035 BKN100
     FM012300 04009KT P6SM VCSH BKN030 BKN100
     FM020900 02005KT P6SM SCT030 SCT100
     FM021400 03007KT P6SM SCT040=

USA.gov is the U.S. government's official web portal to all federal, state and local government web resources and services.